createdAt,value
2023-02-08T00:00:45.356Z,60.30
2023-02-08T00:03:12.504Z,60.50
2023-02-08T00:05:39.798Z,60.20
2023-02-08T00:08:07.652Z,60.10
2023-02-08T00:10:35.409Z,60.40
2023-02-08T00:13:02.450Z,60.10
2023-02-08T00:15:29.459Z,60.00
2023-02-08T00:17:56.367Z,59.90
2023-02-08T00:20:23.347Z,59.80
2023-02-08T00:22:51.977Z,59.80
2023-02-08T00:25:19.776Z,60.20
2023-02-08T00:27:46.771Z,60.20
2023-02-08T00:30:13.840Z,59.80
2023-02-08T00:32:40.743Z,60.10
2023-02-08T00:35:08.017Z,60.10
2023-02-08T00:37:34.950Z,60.30
2023-02-08T00:40:02.675Z,60.00
2023-02-08T00:42:30.291Z,60.10
2023-02-08T00:44:57.743Z,60.00
2023-02-08T00:47:25.022Z,59.80
2023-02-08T00:49:51.995Z,60.00
2023-02-08T00:52:20.005Z,60.20
2023-02-08T00:54:47.148Z,59.80
2023-02-08T00:57:14.837Z,60.60
2023-02-08T00:59:41.866Z,60.40
2023-02-08T01:02:10.214Z,60.60
2023-02-08T01:04:37.918Z,60.00
2023-02-08T01:07:05.741Z,60.00
2023-02-08T01:09:33.975Z,59.90
2023-02-08T01:12:01.556Z,60.00
2023-02-08T01:14:28.612Z,60.20
2023-02-08T01:16:55.591Z,60.20
2023-02-08T01:19:22.699Z,60.10
2023-02-08T01:21:49.632Z,60.10
2023-02-08T01:24:17.261Z,60.00
2023-02-08T01:26:44.370Z,59.60
2023-02-08T01:29:11.593Z,59.80
2023-02-08T01:31:41.095Z,59.60
2023-02-08T01:34:09.279Z,59.30
2023-02-08T01:36:37.350Z,59.40
2023-02-08T01:39:06.288Z,59.40
2023-02-08T01:41:36.477Z,59.10
2023-02-08T01:44:12.314Z,59.20
2023-02-08T01:46:51.288Z,59.30
2023-02-08T01:49:31.157Z,59.20
2023-02-08T01:52:09.630Z,59.00
2023-02-08T01:55:11.416Z,58.90
2023-02-08T01:57:39.450Z,59.10
2023-02-08T02:00:16.269Z,58.70
2023-02-08T02:02:46.092Z,59.10
2023-02-08T02:05:14.117Z,58.80
2023-02-08T02:07:41.522Z,58.90
2023-02-08T02:10:16.311Z,58.80
2023-02-08T02:12:44.674Z,58.70
2023-02-08T02:15:12.131Z,58.80
2023-02-08T02:17:39.653Z,59.00
2023-02-08T02:20:18.717Z,58.70
2023-02-08T02:23:03.210Z,58.70
2023-02-08T02:25:40.066Z,58.70
2023-02-08T02:28:40.712Z,58.80
2023-02-08T02:31:27.884Z,58.70
2023-02-08T02:34:32.671Z,58.50
2023-02-08T02:37:31.186Z,58.80
2023-02-08T02:40:27.944Z,58.80
2023-02-08T02:43:34.796Z,58.40
2023-02-08T02:46:12.714Z,58.30
2023-02-08T02:49:09.922Z,58.80
2023-02-08T02:52:09.967Z,58.60
2023-02-08T02:54:52.364Z,58.50
2023-02-08T02:57:27.912Z,58.70
2023-02-08T02:59:55.306Z,58.30
2023-02-08T03:02:27.087Z,58.70
2023-02-08T03:04:56.778Z,58.40
2023-02-08T03:07:46.973Z,58.40
2023-02-08T03:10:22.594Z,58.50
2023-02-08T03:13:01.069Z,58.40
2023-02-08T03:15:40.124Z,58.10
2023-02-08T03:18:51.300Z,58.30
2023-02-08T03:21:41.808Z,58.40
2023-02-08T03:24:37.450Z,58.60
2023-02-08T03:27:13.010Z,58.50
2023-02-08T03:30:27.031Z,58.50
2023-02-08T03:33:17.335Z,58.50
2023-02-08T03:35:57.395Z,58.10
2023-02-08T03:38:30.863Z,58.20
2023-02-08T03:41:01.429Z,58.10
2023-02-08T03:43:42.400Z,57.90
2023-02-08T03:46:21.485Z,58.20
2023-02-08T03:48:56.176Z,58.20
2023-02-08T03:51:26.157Z,58.30
2023-02-08T03:53:55.510Z,58.40
2023-02-08T03:56:36.650Z,58.30
2023-02-08T03:59:12.356Z,58.30
2023-02-08T04:01:45.891Z,58.10
2023-02-08T04:04:15.307Z,58.10
2023-02-08T04:06:42.265Z,58.20
2023-02-08T04:09:09.186Z,58.20
2023-02-08T04:11:36.179Z,58.10
2023-02-08T04:14:03.299Z,58.00
2023-02-08T04:16:30.253Z,58.20
2023-02-08T04:18:57.183Z,58.30
2023-02-08T04:21:24.333Z,58.20
2023-02-08T04:23:51.249Z,58.30
2023-02-08T04:26:18.176Z,58.00
2023-02-08T04:28:45.123Z,58.30
2023-02-08T04:31:12.177Z,58.20
2023-02-08T04:33:39.334Z,58.00
2023-02-08T04:36:06.560Z,58.10
2023-02-08T04:38:33.522Z,58.20
2023-02-08T04:41:00.430Z,57.90
2023-02-08T04:43:27.676Z,58.30
2023-02-08T04:45:54.626Z,58.10
2023-02-08T04:48:21.736Z,58.20
2023-02-08T04:50:49.000Z,58.10
2023-02-08T04:53:15.946Z,58.60
2023-02-08T04:55:42.839Z,58.20
2023-02-08T04:58:09.808Z,58.00
2023-02-08T05:00:36.751Z,58.20
2023-02-08T05:03:04.606Z,57.80
2023-02-08T05:05:32.732Z,58.30
2023-02-08T05:07:59.792Z,58.10
2023-02-08T05:10:27.183Z,57.70
2023-02-08T05:12:54.212Z,57.80
2023-02-08T05:15:21.221Z,57.20
2023-02-08T05:17:48.659Z,58.10
2023-02-08T05:20:16.018Z,58.20
2023-02-08T05:22:43.138Z,57.80
2023-02-08T05:25:10.182Z,58.00
2023-02-08T05:27:37.565Z,58.30
2023-02-08T05:30:05.251Z,57.80
2023-02-08T05:32:32.209Z,58.00
2023-02-08T05:34:59.113Z,58.00
2023-02-08T05:37:26.136Z,57.80
2023-02-08T05:39:53.146Z,56.80
2023-02-08T05:42:20.086Z,57.50
2023-02-08T05:44:47.027Z,57.60
2023-02-08T05:47:14.055Z,57.80
2023-02-08T05:49:40.981Z,57.90
2023-02-08T05:52:08.079Z,58.50
2023-02-08T05:54:35.114Z,58.00
2023-02-08T05:57:02.146Z,58.30
2023-02-08T05:59:29.251Z,58.30
2023-02-08T06:01:56.249Z,57.40
2023-02-08T06:04:23.296Z,57.60
2023-02-08T06:06:50.275Z,57.80
2023-02-08T06:09:17.154Z,58.40
2023-02-08T06:11:44.824Z,58.40
2023-02-08T06:14:11.781Z,59.10
2023-02-08T06:16:38.846Z,58.90
2023-02-08T06:19:05.817Z,59.30
2023-02-08T06:21:33.008Z,58.70
2023-02-08T06:24:00.010Z,59.60
2023-02-08T06:26:27.341Z,59.10
2023-02-08T06:28:54.356Z,58.70
2023-02-08T06:31:21.276Z,59.40
2023-02-08T06:33:48.280Z,59.50
2023-02-08T06:36:15.202Z,59.00
2023-02-08T06:38:42.206Z,58.70
2023-02-08T06:41:09.131Z,58.40
2023-02-08T06:43:36.364Z,58.00
2023-02-08T06:46:05.007Z,56.80
2023-02-08T06:48:32.275Z,57.60
2023-02-08T06:50:59.205Z,58.20
2023-02-08T06:53:26.276Z,58.50
2023-02-08T06:55:53.216Z,58.00
2023-02-08T06:58:20.696Z,58.10
2023-02-08T07:00:47.811Z,57.90
2023-02-08T07:03:17.639Z,58.30
2023-02-08T07:05:58.747Z,57.30
2023-02-08T07:08:33.443Z,57.90
2023-02-08T07:11:00.389Z,58.00
2023-02-08T07:13:27.742Z,57.50
2023-02-08T07:15:54.807Z,57.70
2023-02-08T07:18:23.341Z,58.50
2023-02-08T07:20:50.533Z,58.50
2023-02-08T07:23:17.472Z,58.50
2023-02-08T07:25:45.955Z,58.00
2023-02-08T07:28:12.926Z,58.50
2023-02-08T07:30:40.204Z,57.50
2023-02-08T07:33:07.844Z,58.60
2023-02-08T07:35:34.905Z,58.20
2023-02-08T07:38:01.923Z,58.40
2023-02-08T07:40:28.951Z,58.10
2023-02-08T07:42:55.936Z,58.40
2023-02-08T07:45:34.393Z,58.00
2023-02-08T07:48:01.381Z,58.00
2023-02-08T07:50:28.322Z,58.50
2023-02-08T07:52:55.307Z,58.70
2023-02-08T07:55:22.253Z,57.40
2023-02-08T07:57:50.334Z,58.20
2023-02-08T08:00:18.927Z,58.00
2023-02-08T08:02:45.943Z,57.50
2023-02-08T08:05:12.970Z,58.50
2023-02-08T08:07:39.907Z,58.50
2023-02-08T08:10:07.189Z,58.20
2023-02-08T08:12:36.285Z,58.20
2023-02-08T08:15:03.419Z,58.20
2023-02-08T08:17:30.367Z,58.00
2023-02-08T08:19:57.308Z,58.20
2023-02-08T08:22:24.301Z,58.00
2023-02-08T08:24:51.289Z,58.20
2023-02-08T08:27:18.227Z,58.10
2023-02-08T08:29:45.200Z,57.90
2023-02-08T08:32:13.370Z,58.00
2023-02-08T08:34:40.511Z,57.80
2023-02-08T08:37:07.478Z,57.80
2023-02-08T08:39:34.443Z,58.10
2023-02-08T08:42:04.068Z,57.70
2023-02-08T08:44:31.543Z,57.30
2023-02-08T08:47:00.343Z,57.20
2023-02-08T08:49:28.467Z,57.40
2023-02-08T08:51:55.890Z,56.70
2023-02-08T08:54:22.997Z,57.10
2023-02-08T08:56:50.007Z,56.70
2023-02-08T08:59:17.169Z,55.90
2023-02-08T09:01:44.343Z,55.90
2023-02-08T09:04:11.485Z,55.60
2023-02-08T09:06:38.930Z,56.30
2023-02-08T09:09:06.379Z,55.70
2023-02-08T09:11:33.539Z,55.10
2023-02-08T09:14:05.341Z,54.90
2023-02-08T09:16:32.928Z,55.00
2023-02-08T09:19:07.927Z,54.20
2023-02-08T09:21:35.922Z,53.60
2023-02-08T09:24:04.033Z,53.00
2023-02-08T09:26:31.044Z,53.10
2023-02-08T09:28:58.209Z,52.80
2023-02-08T09:31:31.235Z,52.70
2023-02-08T09:34:01.200Z,52.60
2023-02-08T09:36:32.078Z,52.60
2023-02-08T09:39:03.273Z,51.00
2023-02-08T09:41:42.891Z,51.70
2023-02-08T09:44:37.500Z,50.70
2023-02-08T09:47:29.587Z,50.60
2023-02-08T09:50:04.907Z,50.00
2023-02-08T09:52:47.561Z,48.60
2023-02-08T09:55:40.583Z,49.30
2023-02-08T09:58:22.225Z,49.10
2023-02-08T10:00:50.865Z,49.60
2023-02-08T10:03:38.038Z,49.20
2023-02-08T10:06:07.736Z,48.70
2023-02-08T10:08:36.017Z,48.40
2023-02-08T10:11:14.779Z,46.70
2023-02-08T10:14:06.538Z,48.20
2023-02-08T10:16:51.978Z,48.00
2023-02-08T10:19:31.057Z,46.50
2023-02-08T10:22:06.969Z,47.90
2023-02-08T10:24:58.303Z,47.40
2023-02-08T10:27:47.989Z,47.30
2023-02-08T10:30:32.909Z,45.70
2023-02-08T10:32:59.866Z,46.30
2023-02-08T10:35:39.217Z,46.00
2023-02-08T10:38:37.241Z,44.60
2023-02-08T10:41:18.564Z,45.00
2023-02-08T10:44:05.899Z,44.50
2023-02-08T10:46:37.778Z,43.20
2023-02-08T10:49:04.718Z,45.70
2023-02-08T10:51:31.838Z,44.00
2023-02-08T10:53:58.872Z,45.10
2023-02-08T10:56:51.515Z,44.30
2023-02-08T10:59:35.755Z,44.90
2023-02-08T11:02:02.902Z,43.40
2023-02-08T11:04:29.967Z,43.70
2023-02-08T11:06:57.053Z,43.10
2023-02-08T11:09:30.136Z,43.50
2023-02-08T11:12:00.184Z,41.70
2023-02-08T11:14:47.196Z,42.40
2023-02-08T11:17:34.003Z,41.50
2023-02-08T11:20:01.355Z,43.00
2023-02-08T11:22:34.506Z,41.90
2023-02-08T11:25:05.555Z,41.40
2023-02-08T11:27:37.414Z,41.80
2023-02-08T11:30:21.252Z,41.20
2023-02-08T11:33:10.999Z,41.70
2023-02-08T11:35:38.335Z,42.90
2023-02-08T11:38:05.375Z,42.20
2023-02-08T11:40:37.238Z,39.80
2023-02-08T11:43:05.670Z,40.80
2023-02-08T11:45:36.042Z,39.80
2023-02-08T11:48:05.094Z,40.70
2023-02-08T11:50:36.246Z,39.60
2023-02-08T11:53:06.776Z,40.30
2023-02-08T11:55:35.356Z,41.60
2023-02-08T11:58:18.013Z,40.80
2023-02-08T12:01:06.195Z,41.10
2023-02-08T12:03:41.308Z,40.00
2023-02-08T12:06:18.004Z,39.80
2023-02-08T12:09:23.340Z,40.30
2023-02-08T12:12:05.593Z,41.40
2023-02-08T12:15:23.385Z,34.70
2023-02-08T12:18:15.355Z,41.10
2023-02-08T12:20:47.938Z,41.80
2023-02-08T12:23:43.705Z,41.20
2023-02-08T12:26:23.021Z,41.40
2023-02-08T12:29:19.252Z,41.50
2023-02-08T12:32:01.229Z,41.20
2023-02-08T12:34:55.562Z,39.90
2023-02-08T12:37:59.799Z,38.80
2023-02-08T12:40:52.845Z,36.80
2023-02-08T12:43:28.371Z,39.10
2023-02-08T12:46:14.106Z,40.60
2023-02-08T12:49:04.882Z,40.00
2023-02-08T12:51:50.944Z,38.60
2023-02-08T12:54:46.583Z,39.70
2023-02-08T12:57:17.002Z,39.30
2023-02-08T13:00:07.644Z,39.90
2023-02-08T13:02:44.543Z,40.00
2023-02-08T13:05:19.046Z,40.10
2023-02-08T13:07:50.443Z,40.10
2023-02-08T13:10:36.469Z,40.40
2023-02-08T13:13:15.735Z,39.50
2023-02-08T13:15:58.474Z,40.00
2023-02-08T13:18:34.372Z,37.70
2023-02-08T13:21:11.732Z,38.70
2023-02-08T13:23:52.122Z,40.20
2023-02-08T13:26:23.057Z,39.70
2023-02-08T13:28:53.135Z,39.20
2023-02-08T13:31:24.311Z,40.20
2023-02-08T13:34:13.964Z,40.30
2023-02-08T13:36:51.468Z,40.20
2023-02-08T13:39:36.922Z,40.50
2023-02-08T13:42:06.861Z,38.50
2023-02-08T13:44:40.803Z,40.80
2023-02-08T13:47:22.278Z,40.50
2023-02-08T13:50:04.995Z,41.30
2023-02-08T13:52:47.666Z,40.90
2023-02-08T13:55:38.224Z,41.50
2023-02-08T13:58:14.232Z,40.50
2023-02-08T14:00:56.715Z,40.50
2023-02-08T14:03:31.193Z,40.60
2023-02-08T14:06:07.152Z,40.60
2023-02-08T14:08:40.109Z,40.40
2023-02-08T14:11:33.272Z,40.70
2023-02-08T14:14:14.663Z,39.60
2023-02-08T14:16:44.621Z,41.00
2023-02-08T14:19:20.252Z,40.90
2023-02-08T14:22:12.948Z,40.60
2023-02-08T14:25:05.119Z,40.80
2023-02-08T14:27:49.203Z,40.50
2023-02-08T14:30:17.221Z,38.10
2023-02-08T14:32:51.502Z,39.90
2023-02-08T14:35:25.160Z,39.50
2023-02-08T14:38:23.996Z,40.00
2023-02-08T14:40:55.370Z,40.00
2023-02-08T14:43:42.522Z,40.60
2023-02-08T14:46:38.544Z,40.00
2023-02-08T14:49:12.805Z,40.30
2023-02-08T14:51:47.040Z,40.60
2023-02-08T14:54:24.141Z,40.10
2023-02-08T14:57:07.967Z,40.70
2023-02-08T14:59:36.238Z,41.00
2023-02-08T15:02:12.572Z,41.40
2023-02-08T15:04:44.815Z,41.70
2023-02-08T15:07:35.145Z,41.90
2023-02-08T15:10:10.992Z,41.70
2023-02-08T15:12:40.382Z,39.90
2023-02-08T15:15:24.153Z,40.70
2023-02-08T15:17:53.491Z,40.80
2023-02-08T15:20:33.656Z,40.30
2023-02-08T15:23:02.869Z,40.40
2023-02-08T15:25:35.398Z,40.90
2023-02-08T15:28:03.673Z,40.40
2023-02-08T15:30:38.617Z,41.00
2023-02-08T15:33:14.631Z,41.60
2023-02-08T15:35:43.624Z,40.70
2023-02-08T15:38:18.414Z,41.00
2023-02-08T15:41:00.497Z,40.30
2023-02-08T15:43:27.519Z,40.50
2023-02-08T15:46:02.493Z,40.90
2023-02-08T15:48:32.228Z,40.80
2023-02-08T15:51:00.950Z,41.30
2023-02-08T15:53:29.071Z,40.50
2023-02-08T15:56:00.959Z,40.80
2023-02-08T15:58:40.534Z,40.80
2023-02-08T16:01:09.185Z,41.10
2023-02-08T16:03:38.762Z,41.60
2023-02-08T16:06:07.723Z,41.50
2023-02-08T16:08:37.821Z,41.30
2023-02-08T16:11:21.474Z,41.20
2023-02-08T16:13:51.062Z,42.70
2023-02-08T16:16:21.165Z,42.40
2023-02-08T16:18:55.925Z,41.40
2023-02-08T16:21:27.762Z,41.80
2023-02-08T16:24:04.245Z,42.20
2023-02-08T16:26:35.961Z,42.10
2023-02-08T16:29:15.459Z,41.90
2023-02-08T16:31:47.890Z,42.30
2023-02-08T16:34:19.749Z,42.50
2023-02-08T16:36:51.293Z,43.70
2023-02-08T16:39:18.170Z,43.70
2023-02-08T16:42:06.523Z,42.60
2023-02-08T16:45:09.094Z,43.50
2023-02-08T16:47:36.208Z,44.50
2023-02-08T16:50:04.604Z,44.90
2023-02-08T16:52:33.179Z,44.40
2023-02-08T16:55:00.645Z,44.90
2023-02-08T16:57:42.609Z,44.90
2023-02-08T17:00:34.319Z,44.40
2023-02-08T17:03:01.914Z,46.40
2023-02-08T17:05:37.353Z,45.70
2023-02-08T17:08:08.016Z,46.00
2023-02-08T17:10:35.372Z,45.90
2023-02-08T17:13:19.420Z,46.50
2023-02-08T17:15:49.465Z,46.90
2023-02-08T17:18:16.779Z,46.90
2023-02-08T17:20:43.899Z,47.00
2023-02-08T17:23:11.513Z,46.90
2023-02-08T17:25:39.254Z,48.10
2023-02-08T17:28:09.057Z,47.70
2023-02-08T17:30:40.050Z,47.30
2023-02-08T17:33:10.117Z,47.50
2023-02-08T17:35:38.392Z,47.90
2023-02-08T17:38:06.248Z,48.60
2023-02-08T17:40:36.036Z,48.30
2023-02-08T17:43:04.902Z,47.50
2023-02-08T17:45:32.389Z,47.60
2023-02-08T17:48:02.423Z,47.80
2023-02-08T17:50:30.284Z,48.60
2023-02-08T17:52:57.547Z,48.70
2023-02-08T17:55:25.356Z,49.00
2023-02-08T17:57:53.786Z,48.50
2023-02-08T18:00:22.651Z,49.50
2023-02-08T18:02:52.803Z,49.70
2023-02-08T18:05:27.393Z,48.90
2023-02-08T18:07:56.195Z,49.00
2023-02-08T18:10:25.308Z,49.80
2023-02-08T18:12:52.383Z,48.80
2023-02-08T18:15:22.180Z,49.80
2023-02-08T18:17:53.226Z,50.00
2023-02-08T18:20:20.283Z,50.20
2023-02-08T18:22:47.314Z,50.00
2023-02-08T18:25:16.033Z,49.80
2023-02-08T18:27:43.320Z,49.60
2023-02-08T18:30:11.926Z,49.60
2023-02-08T18:32:39.807Z,50.20
2023-02-08T18:35:07.973Z,50.00
2023-02-08T18:37:36.632Z,50.30
2023-02-08T18:40:07.580Z,50.00
2023-02-08T18:42:36.177Z,49.60
2023-02-08T18:45:04.932Z,50.00
2023-02-08T18:47:31.953Z,50.50
2023-02-08T18:49:59.130Z,50.20
2023-02-08T18:52:26.206Z,50.40
2023-02-08T18:54:53.305Z,50.80
2023-02-08T18:57:20.435Z,50.20
2023-02-08T18:59:47.434Z,50.40
2023-02-08T19:02:20.997Z,51.20
2023-02-08T19:04:48.404Z,51.40
2023-02-08T19:07:16.325Z,51.40
2023-02-08T19:09:44.405Z,50.50
2023-02-08T19:12:15.578Z,50.80
2023-02-08T19:14:43.450Z,51.10
2023-02-08T19:17:12.349Z,51.80
2023-02-08T19:19:40.545Z,51.50
2023-02-08T19:22:07.673Z,51.50
2023-02-08T19:24:34.717Z,51.70
2023-02-08T19:27:01.856Z,51.90
2023-02-08T19:29:29.267Z,52.00
2023-02-08T19:31:58.278Z,51.50
2023-02-08T19:34:25.731Z,51.70
2023-02-08T19:36:54.614Z,51.90
2023-02-08T19:39:25.105Z,52.00
2023-02-08T19:41:53.052Z,52.50
2023-02-08T19:44:20.954Z,51.80
2023-02-08T19:46:53.709Z,52.20
2023-02-08T19:49:22.255Z,52.30
2023-02-08T19:51:49.495Z,52.50
2023-02-08T19:54:18.836Z,52.20
2023-02-08T19:56:46.461Z,52.60
2023-02-08T19:59:20.056Z,52.40
2023-02-08T20:01:47.883Z,51.70
2023-02-08T20:04:14.966Z,51.60
2023-02-08T20:06:44.916Z,52.30
2023-02-08T20:09:15.216Z,52.00
2023-02-08T20:11:56.522Z,51.50
2023-02-08T20:14:24.875Z,51.50
2023-02-08T20:16:52.087Z,51.70
2023-02-08T20:19:19.052Z,51.20
2023-02-08T20:21:46.166Z,51.20
2023-02-08T20:24:13.927Z,51.60
2023-02-08T20:26:43.455Z,49.90
2023-02-08T20:29:11.166Z,50.20
2023-02-08T20:31:42.569Z,50.10
2023-02-08T20:34:13.760Z,50.40
2023-02-08T20:36:45.122Z,51.00
2023-02-08T20:39:19.063Z,51.10
2023-02-08T20:41:47.654Z,51.80
2023-02-08T20:44:17.258Z,52.40
2023-02-08T20:46:44.970Z,51.70
2023-02-08T20:49:15.236Z,52.60
2023-02-08T20:51:43.360Z,52.30
2023-02-08T20:54:11.269Z,52.40
2023-02-08T20:56:38.895Z,52.40
2023-02-08T20:59:08.635Z,51.80
2023-02-08T21:01:36.705Z,51.80
2023-02-08T21:04:04.659Z,51.90
2023-02-08T21:06:34.078Z,51.90
2023-02-08T21:09:05.917Z,52.30
2023-02-08T21:11:33.934Z,52.50
2023-02-08T21:14:01.993Z,53.60
2023-02-08T21:16:29.975Z,53.00
2023-02-08T21:18:57.587Z,53.60
2023-02-08T21:21:25.880Z,51.50
2023-02-08T21:23:52.814Z,51.70
2023-02-08T21:26:20.848Z,52.20
2023-02-08T21:28:48.322Z,52.10
2023-02-08T21:31:19.667Z,53.30
2023-02-08T21:33:46.742Z,53.30
2023-02-08T21:36:16.929Z,53.60
2023-02-08T21:38:44.402Z,52.50
2023-02-08T21:41:17.300Z,52.50
2023-02-08T21:43:44.281Z,52.50
2023-02-08T21:46:11.293Z,52.80
2023-02-08T21:48:57.424Z,52.50
2023-02-08T21:51:44.236Z,52.20
2023-02-08T21:54:35.342Z,52.00
2023-02-08T21:57:04.897Z,52.40
2023-02-08T21:59:37.275Z,52.30
2023-02-08T22:02:07.131Z,51.60
2023-02-08T22:04:35.900Z,51.80
2023-02-08T22:07:04.612Z,50.30
2023-02-08T22:09:31.870Z,51.60
2023-02-08T22:11:58.987Z,51.00
2023-02-08T22:14:26.451Z,50.60
2023-02-08T22:16:53.385Z,50.40
2023-02-08T22:19:20.426Z,50.80
2023-02-08T22:21:47.526Z,50.50
2023-02-08T22:24:14.515Z,51.40
2023-02-08T22:26:41.530Z,51.50
2023-02-08T22:29:08.475Z,51.80
2023-02-08T22:31:35.481Z,51.70
2023-02-08T22:34:02.610Z,52.10
2023-02-08T22:36:29.582Z,51.40
2023-02-08T22:38:56.660Z,52.10
2023-02-08T22:41:23.638Z,52.00
2023-02-08T22:43:50.745Z,52.40
2023-02-08T22:46:17.772Z,52.30
2023-02-08T22:48:44.750Z,52.40
2023-02-08T22:51:18.197Z,52.70
2023-02-08T22:53:46.017Z,52.10
2023-02-08T22:56:19.706Z,52.30
2023-02-08T22:58:46.709Z,52.30
2023-02-08T23:01:16.500Z,53.00
2023-02-08T23:03:43.968Z,52.80
2023-02-08T23:06:15.503Z,53.30
2023-02-08T23:08:42.744Z,52.30
2023-02-08T23:11:12.693Z,52.70
2023-02-08T23:13:39.841Z,53.40
2023-02-08T23:16:07.109Z,53.40
2023-02-08T23:18:35.819Z,52.90
2023-02-08T23:21:10.328Z,52.40
2023-02-08T23:23:37.395Z,52.90
2023-02-08T23:26:09.433Z,52.60
2023-02-08T23:28:37.312Z,51.80
2023-02-08T23:31:13.301Z,52.90
2023-02-08T23:33:40.797Z,51.20
2023-02-08T23:36:08.814Z,52.10
2023-02-08T23:38:35.955Z,51.90
2023-02-08T23:41:14.604Z,50.70
2023-02-08T23:43:41.794Z,50.70
2023-02-08T23:46:19.139Z,50.60
2023-02-08T23:48:47.740Z,51.10
2023-02-08T23:51:16.375Z,50.70
2023-02-08T23:53:43.705Z,50.50
2023-02-08T23:56:29.580Z,49.00
2023-02-08T23:58:59.000Z,50.80
